createdAt,value
2022-08-18T00:02:31.113Z,5.30
2022-08-18T00:08:26.079Z,5.83
2022-08-18T00:14:22.420Z,6.87
2022-08-18T00:20:22.676Z,6.50
2022-08-18T00:26:16.247Z,7.20
2022-08-18T00:32:16.656Z,7.80
2022-08-18T00:38:24.940Z,8.10
2022-08-18T00:44:18.817Z,8.80
2022-08-18T00:50:16.246Z,8.97
2022-08-18T00:56:14.369Z,8.93
2022-08-18T01:02:10.832Z,9.20
2022-08-18T01:08:05.168Z,11.03
2022-08-18T01:14:00.903Z,9.70
2022-08-18T01:20:11.827Z,10.00
2022-08-18T01:26:06.919Z,10.00
2022-08-18T01:32:00.273Z,9.67
2022-08-18T01:37:54.565Z,10.07
2022-08-18T01:43:49.698Z,10.83
2022-08-18T01:49:43.794Z,11.50
2022-08-18T01:55:38.991Z,12.10
2022-08-18T02:01:48.081Z,9.90
2022-08-18T02:07:44.513Z,10.10
2022-08-18T02:13:37.875Z,11.17
2022-08-18T02:19:36.966Z,10.90
2022-08-18T02:25:29.951Z,9.63
2022-08-18T02:31:26.063Z,10.30
2022-08-18T02:37:21.663Z,10.43
2022-08-18T02:43:15.024Z,9.63
2022-08-18T02:49:08.973Z,10.87
2022-08-18T02:55:04.537Z,11.40
2022-08-18T03:00:59.347Z,10.53
2022-08-18T03:06:53.011Z,10.43
2022-08-18T03:12:47.770Z,9.70
2022-08-18T03:18:42.137Z,9.80
2022-08-18T03:24:36.594Z,11.13
2022-08-18T03:30:31.362Z,10.90
2022-08-18T03:36:26.590Z,9.80
2022-08-18T03:42:19.973Z,10.40
2022-08-18T03:48:14.710Z,9.90
2022-08-18T03:54:08.106Z,11.00
2022-08-18T04:00:01.473Z,10.47
2022-08-18T04:05:59.937Z,10.47
2022-08-18T04:11:53.842Z,9.67
2022-08-18T04:18:03.187Z,11.13
2022-08-18T04:24:01.864Z,12.13
2022-08-18T04:29:57.048Z,12.13
2022-08-18T04:35:51.644Z,11.40
2022-08-18T04:41:46.476Z,11.20
2022-08-18T04:47:42.245Z,11.47
2022-08-18T04:53:48.390Z,12.33
2022-08-18T04:59:47.201Z,12.47
2022-08-18T05:05:40.611Z,12.03
2022-08-18T05:11:34.952Z,15.33
2022-08-18T05:17:31.176Z,13.57
2022-08-18T05:23:25.410Z,13.37
2022-08-18T05:29:19.686Z,12.53
2022-08-18T05:35:19.322Z,14.20
2022-08-18T05:41:15.864Z,12.33
2022-08-18T05:47:14.498Z,12.40
2022-08-18T05:53:14.599Z,11.10
2022-08-18T05:59:08.965Z,12.70
2022-08-18T06:05:07.505Z,12.77
2022-08-18T06:11:01.819Z,12.13
2022-08-18T06:17:02.978Z,11.80
2022-08-18T06:23:09.529Z,14.20
2022-08-18T06:29:14.917Z,16.23
2022-08-18T06:35:18.157Z,14.80
2022-08-18T06:41:37.976Z,15.30
2022-08-18T06:47:42.360Z,15.73
2022-08-18T06:53:55.935Z,16.80
2022-08-18T06:59:57.107Z,18.90
2022-08-18T07:06:02.791Z,18.57
2022-08-18T07:12:02.980Z,17.03
2022-08-18T07:18:06.725Z,16.90
2022-08-18T07:24:23.738Z,18.83
2022-08-18T07:30:29.462Z,31.57
2022-08-18T07:36:28.220Z,49.80
2022-08-18T07:42:54.459Z,64.10
2022-08-18T07:48:48.150Z,66.87
2022-08-18T07:54:55.998Z,67.03
2022-08-18T08:00:59.690Z,65.07
2022-08-18T08:07:23.404Z,55.97
2022-08-18T08:13:51.305Z,59.40
2022-08-18T08:20:20.609Z,56.17
2022-08-18T08:26:31.449Z,49.80
2022-08-18T08:32:32.793Z,72.27
2022-08-18T08:38:45.131Z,59.30
2022-08-18T08:44:58.486Z,58.90
2022-08-18T08:50:59.559Z,54.20
2022-08-18T08:56:58.315Z,72.40
2022-08-18T09:03:10.170Z,56.27
2022-08-18T09:09:20.976Z,55.83
2022-08-18T09:15:41.386Z,62.67
2022-08-18T09:21:44.703Z,46.30
2022-08-18T09:28:07.145Z,42.03
2022-08-18T09:34:32.925Z,48.13
2022-08-18T09:41:02.618Z,52.07
2022-08-18T09:47:00.230Z,43.17
2022-08-18T09:53:02.433Z,42.03
2022-08-18T09:59:02.926Z,43.20
2022-08-18T10:05:28.435Z,43.93
2022-08-18T10:11:38.667Z,40.97
2022-08-18T10:17:50.070Z,41.70
2022-08-18T10:30:05.164Z,39.00
2022-08-18T10:36:03.251Z,33.93
2022-08-18T10:42:08.093Z,36.00
2022-08-18T10:48:17.338Z,37.60
2022-08-18T10:54:22.070Z,38.70
2022-08-18T11:00:21.368Z,41.03
2022-08-18T11:06:21.898Z,38.00
2022-08-18T11:12:16.126Z,38.90
2022-08-18T11:18:21.109Z,33.00
2022-08-18T11:24:21.361Z,34.87
2022-08-18T11:30:14.828Z,31.83
2022-08-18T11:36:11.016Z,33.03
2022-08-18T11:54:53.036Z,26.70
2022-08-18T12:01:02.866Z,28.30
2022-08-18T12:07:01.712Z,23.43
2022-08-18T12:13:00.746Z,20.70
2022-08-18T12:18:55.902Z,19.60
2022-08-18T12:24:50.742Z,21.00
2022-08-18T12:30:44.171Z,20.90
2022-08-18T12:36:39.655Z,17.80
2022-08-18T12:42:32.630Z,18.03
2022-08-18T12:48:27.080Z,13.70
2022-08-18T12:54:21.789Z,12.47
2022-08-18T13:00:17.557Z,13.03
2022-08-18T13:06:12.933Z,13.03
2022-08-18T13:12:14.914Z,10.90
2022-08-18T13:18:14.408Z,13.60
2022-08-18T13:24:09.329Z,13.07
2022-08-18T13:30:29.725Z,10.57
2022-08-18T13:36:19.747Z,11.40
2022-08-18T13:42:26.110Z,10.47
2022-08-18T13:48:24.066Z,11.70
2022-08-18T13:54:30.886Z,10.27
2022-08-18T14:00:30.661Z,9.70
2022-08-18T14:12:29.626Z,11.93
2022-08-18T14:18:28.855Z,11.20
2022-08-18T14:24:43.305Z,9.23
2022-08-18T14:30:44.309Z,10.13
2022-08-18T14:36:47.437Z,12.33
2022-08-18T14:42:54.905Z,9.63
2022-08-18T14:48:49.293Z,9.10
2022-08-18T14:54:46.279Z,6.77
2022-08-18T15:00:53.320Z,8.77
2022-08-18T15:06:56.345Z,8.37
2022-08-18T15:12:51.048Z,8.70
2022-08-18T15:18:47.466Z,9.00
2022-08-18T15:24:59.527Z,10.40
2022-08-18T15:37:10.180Z,11.50
2022-08-18T15:43:09.951Z,11.60
2022-08-18T15:49:06.308Z,11.73
2022-08-18T15:55:03.909Z,11.60
2022-08-18T16:01:01.782Z,14.17
2022-08-18T16:07:17.907Z,12.57
2022-08-18T16:13:20.910Z,11.70
2022-08-18T16:19:14.374Z,11.70
2022-08-18T16:25:09.942Z,11.20
2022-08-18T16:31:06.420Z,11.13
2022-08-18T16:36:59.848Z,9.77
2022-08-18T16:42:56.299Z,10.03
2022-08-18T16:48:51.052Z,10.40
2022-08-18T16:54:44.435Z,8.93
2022-08-18T17:00:54.879Z,12.00
2022-08-18T17:06:50.894Z,8.40
2022-08-18T17:12:44.253Z,8.43
2022-08-18T17:18:38.684Z,8.17
2022-08-18T17:24:33.922Z,10.33
2022-08-18T17:30:32.063Z,7.47
2022-08-18T17:36:34.118Z,8.33
2022-08-18T17:42:31.658Z,8.00
2022-08-18T17:48:29.710Z,6.60
2022-08-18T17:54:29.691Z,9.90
2022-08-18T18:00:24.821Z,7.33
2022-08-18T18:06:30.406Z,12.70
2022-08-18T18:12:25.450Z,8.13
2022-08-18T18:18:35.001Z,8.43
2022-08-18T18:24:32.448Z,11.57
2022-08-18T18:30:30.171Z,9.73
2022-08-18T18:36:34.537Z,9.10
2022-08-18T18:42:30.470Z,12.60
2022-08-18T18:48:45.322Z,11.77
2022-08-18T18:54:57.231Z,11.03
2022-08-18T19:00:56.010Z,9.03
2022-08-18T19:06:55.041Z,8.80
2022-08-18T19:12:54.292Z,8.47
2022-08-18T19:18:59.108Z,8.53
2022-08-18T19:25:09.601Z,7.97
2022-08-18T19:31:10.388Z,7.70
2022-08-18T19:37:10.529Z,8.27
2022-08-18T19:43:11.413Z,10.80
2022-08-18T19:49:18.784Z,10.37
2022-08-18T19:55:27.744Z,8.00
2022-08-18T20:01:35.015Z,9.17
2022-08-18T20:07:55.263Z,9.73
2022-08-18T20:13:49.943Z,7.93
2022-08-18T20:19:50.057Z,7.70
2022-08-18T20:25:47.444Z,11.20
2022-08-18T20:31:55.457Z,7.80
2022-08-18T20:37:48.903Z,8.20
2022-08-18T20:43:43.365Z,8.90
2022-08-18T20:49:46.626Z,8.73
2022-08-18T20:55:49.110Z,9.50
2022-08-18T21:01:57.303Z,7.63
2022-08-18T21:08:02.570Z,9.63
2022-08-18T21:13:56.874Z,7.90
2022-08-18T21:19:51.940Z,9.70
2022-08-18T21:25:53.052Z,8.10
2022-08-18T21:31:48.270Z,8.47
2022-08-18T21:37:43.517Z,8.73
2022-08-18T21:43:49.391Z,10.47
2022-08-18T21:49:59.239Z,9.67
2022-08-18T21:55:56.785Z,10.30
2022-08-18T22:01:52.361Z,11.03
2022-08-18T22:07:49.364Z,8.43
2022-08-18T22:14:03.222Z,9.53
2022-08-18T22:19:56.765Z,12.20
2022-08-18T22:25:50.373Z,9.00
2022-08-18T22:31:47.822Z,17.77
2022-08-18T22:37:50.233Z,11.03
2022-08-18T22:43:44.313Z,11.70
2022-08-18T22:49:39.741Z,11.70
2022-08-18T22:55:33.387Z,9.20
2022-08-18T23:01:27.846Z,10.97
2022-08-18T23:07:24.471Z,13.33
2022-08-18T23:13:17.899Z,11.57
2022-08-18T23:19:11.254Z,12.70
2022-08-18T23:25:09.216Z,17.60
2022-08-18T23:31:02.511Z,11.93
2022-08-18T23:36:57.387Z,11.93
2022-08-18T23:42:52.291Z,13.73
2022-08-18T23:48:50.039Z,13.50
2022-08-18T23:54:43.392Z,12.90
